Time;durP1;ratioP1;P1;durP2;ratioP2;P2;SDS_P1;SDS_P2;PMS_P1;PMS_P2;Temp;Humidity;BMP_temperature;BMP_pressure;BME280_temperature;BME280_humidity;BME280_pressure;Samples;Min_cycle;Max_cycle;Signal;HPM_P1;HPM_P2
2023/09/28 06:13:18;;;;;;;;;;;19.20;99.90;;;;;;2610469;54;23004;-72
2023/09/28 06:15:48;;;;;;;;;;;16.60;99.90;;;;;;2612928;54;19958;-72
2023/09/28 06:18:18;;;;;;;;;;;16.50;99.90;;;;;;2614859;54;19994;-72
2023/09/28 06:20:48;;;;;;;;;;;16.50;99.90;;;;;;2622422;47;20038;-73
2023/09/28 06:23:18;;;;;;;;;;;16.50;99.90;;;;;;2620870;47;19947;-73
2023/09/28 06:25:48;;;;;;;;;;;16.50;99.90;;;;;;2613803;54;19950;-72
2023/09/28 06:28:23;;;;;;;;;;;16.50;99.90;;;;;;2614257;47;19961;-73
2023/09/28 06:30:54;;;;;;;;;;;16.60;99.90;;;;;;2615395;39;20290;-78
2023/09/28 06:33:24;;;;;;;;;;;16.60;99.90;;;;;;2615158;51;19964;-73
2023/09/28 06:35:54;;;;;;;;;;;16.60;99.90;;;;;;2613363;54;19950;-74
2023/09/28 06:38:24;;;;;;;;;;;16.70;99.90;;;;;;2623751;54;19942;-73
2023/09/28 06:40:54;;;;;;;;;;;16.70;99.90;;;;;;2617906;54;20014;-74
2023/09/28 06:43:27;;;;;;;;;;;16.70;99.90;;;;;;2614414;54;21193;-74
2023/09/28 06:45:58;;;;;;;;;;;16.70;99.90;;;;;;2613749;47;20019;-73
2023/09/28 06:48:28;;;;;;;;;;;16.80;99.90;;;;;;2613274;54;19950;-74
2023/09/28 06:50:59;;;;;;;;;;;16.80;99.90;;;;;;2612189;46;19956;-74
2023/09/28 06:53:29;;;;;;;;;;;16.90;99.90;;;;;;2612730;54;19973;-73
2023/09/28 06:55:59;;;;;;;;;;;17.00;99.90;;;;;;2613099;54;19954;-74
2023/09/28 06:58:46;;;;;;;;;;;17.00;99.90;;;;;;2614684;54;19946;-73
2023/09/28 07:01:16;;;;;;;;;;;17.10;99.90;;;;;;2612445;54;19959;-72
2023/09/28 07:03:46;;;;;;;;;;;17.10;99.90;;;;;;2613291;54;19957;-73
2023/09/28 07:06:16;;;;;;;;;;;17.20;99.90;;;;;;2613302;54;19946;-73
2023/09/28 07:08:45;;;;;;;;;;;17.30;99.90;;;;;;2614040;54;19951;-73
2023/09/28 07:11:15;;;;;;;;;;;17.30;99.90;;;;;;2613211;54;20006;-73
2023/09/28 07:13:48;;;;;;;;;;;17.40;99.90;;;;;;2615100;54;19947;-74
2023/09/28 07:16:18;;;;;;;;;;;17.40;99.90;;;;;;2615220;47;19947;-73
2023/09/28 07:18:48;;;;;;;;;;;17.40;99.90;;;;;;2616215;47;19947;-73
2023/09/28 07:21:19;;;;;;;;;;;17.50;99.90;;;;;;2625479;39;20471;-73
2023/09/28 07:23:49;;;;;;;;;;;17.50;99.90;;;;;;2617127;54;19951;-73
2023/09/28 07:26:25;;;;;;;;;;;17.50;99.90;;;;;;2614323;47;19958;-75
2023/09/28 07:28:58;;;;;;;;;;;17.60;99.90;;;;;;2614948;54;20049;-72
2023/09/28 07:31:40;;;;;;;;;;;17.60;99.90;;;;;;2613878;54;19946;-74
2023/09/28 07:34:18;;;;;;;;;;;17.70;99.90;;;;;;2624002;36;20444;-72
2023/09/28 07:36:48;;;;;;;;;;;17.70;99.90;;;;;;2612932;50;19946;-73
2023/09/28 07:39:20;;;;;;;;;;;17.70;99.90;;;;;;2625473;36;19952;-73
2023/09/28 07:41:51;;;;;;;;;;;17.70;99.90;;;;;;2621864;47;20002;-73
2023/09/28 07:44:24;;;;;;;;;;;17.70;99.90;;;;;;2618019;54;19946;-72
2023/09/28 07:46:55;;;;;;;;;;;17.80;99.90;;;;;;2610610;36;19950;-74
2023/09/28 07:49:25;;;;;;;;;;;17.80;99.90;;;;;;2613663;46;19968;-73
2023/09/28 07:51:55;;;;;;;;;;;17.90;99.90;;;;;;2614114;54;19968;-75
2023/09/28 07:54:25;;;;;;;;;;;17.90;99.90;;;;;;2614933;39;20361;-76
2023/09/28 07:56:56;;;;;;;;;;;18.00;99.90;;;;;;2615431;39;20350;-75
2023/09/28 07:59:28;;;;;;;;;;;18.00;99.90;;;;;;2622546;47;19951;-74
2023/09/28 08:01:58;;;;;;;;;;;18.10;99.90;;;;;;2614764;54;19950;-75
2023/09/28 08:04:28;;;;;;;;;;;18.10;99.90;;;;;;2613660;47;19955;-76
2023/09/28 08:06:58;;;;;;;;;;;18.10;99.90;;;;;;2613615;47;19954;-75
2023/09/28 08:09:28;;;;;;;;;;;18.20;99.90;;;;;;2613386;54;19997;-74
2023/09/28 08:11:58;;;;;;;;;;;18.30;99.90;;;;;;2614552;47;19950;-74
2023/09/28 08:14:34;;;;;;;;;;;18.30;99.90;;;;;;2614472;47;19946;-75
2023/09/28 08:17:04;;;;;;;;;;;18.30;99.90;;;;;;2613983;47;19950;-77
2023/09/28 08:19:34;;;;;;;;;;;18.40;99.90;;;;;;2612085;47;19954;-75
2023/09/28 08:22:05;;;;;;;;;;;18.40;99.90;;;;;;2613965;54;20056;-77
2023/09/28 08:24:35;;;;;;;;;;;18.50;99.90;;;;;;2618484;47;19974;-76
2023/09/28 08:27:05;;;;;;;;;;;18.50;99.90;;;;;;2619536;47;19962;-78
2023/09/28 08:29:38;;;;;;;;;;;18.60;99.90;;;;;;2619328;47;19954;-81
2023/09/28 08:32:08;;;;;;;;;;;18.60;99.90;;;;;;2620147;47;20017;-78
2023/09/28 08:34:38;;;;;;;;;;;18.70;99.90;;;;;;2620246;47;19955;-80
2023/09/28 08:37:08;;;;;;;;;;;18.80;99.90;;;;;;2626517;54;19942;-76
2023/09/28 08:39:39;;;;;;;;;;;18.90;99.90;;;;;;2627690;54;19947;-78
2023/09/28 08:42:13;;;;;;;;;;;19.00;99.90;;;;;;2621380;47;19945;-79
2023/09/28 08:44:47;;;;;;;;;;;19.10;99.90;;;;;;2629484;47;19943;-77
2023/09/28 08:47:21;;;;;;;;;;;19.30;99.90;;;;;;2624515;47;19995;-76
2023/09/28 08:49:52;;;;;;;;;;;19.30;99.90;;;;;;2623804;54;19998;-79
2023/09/28 08:52:24;;;;;;;;;;;19.40;99.90;;;;;;2619739;47;19950;-81
2023/09/28 08:54:54;;;;;;;;;;;19.50;99.90;;;;;;2620925;47;19947;-79
2023/09/28 08:57:24;;;;;;;;;;;19.60;99.90;;;;;;2620104;54;19963;-76
2023/09/28 08:59:57;;;;;;;;;;;19.70;99.90;;;;;;2619194;47;19951;-79
2023/09/28 09:02:28;;;;;;;;;;;19.70;99.90;;;;;;2620345;39;20141;-79
2023/09/28 09:04:58;;;;;;;;;;;19.90;99.90;;;;;;2621032;46;19962;-79
2023/09/28 09:07:29;;;;;;;;;;;20.00;99.90;;;;;;2620306;47;19953;-79
2023/09/28 09:10:00;;;;;;;;;;;20.10;99.90;;;;;;2619758;47;20006;-79
2023/09/28 09:12:32;;;;;;;;;;;20.20;99.90;;;;;;2619712;47;19946;-78
2023/09/28 09:15:06;;;;;;;;;;;20.20;99.90;;;;;;2619466;47;19946;-80
2023/09/28 09:17:37;;;;;;;;;;;20.30;99.90;;;;;;2619832;47;19986;-81
2023/09/28 09:20:09;;;;;;;;;;;20.40;99.90;;;;;;2621536;47;19951;-80
2023/09/28 09:22:40;;;;;;;;;;;20.50;99.90;;;;;;2621720;54;19943;-79
2023/09/28 09:25:42;;;;;;;;;;;20.60;99.90;;;;;;2620692;47;19958;-79
2023/09/28 09:28:12;;;;;;;;;;;20.70;99.90;;;;;;2620123;47;19946;-78
2023/09/28 09:30:45;;;;;;;;;;;20.80;99.90;;;;;;2620115;49;19995;-78
2023/09/28 09:33:16;;;;;;;;;;;20.80;99.90;;;;;;2621023;54;19946;-79
2023/09/28 09:35:46;;;;;;;;;;;20.90;99.90;;;;;;2624166;47;19947;-79
2023/09/28 09:38:16;;;;;;;;;;;21.00;99.90;;;;;;2620069;47;19958;-79
2023/09/28 09:40:58;;;;;;;;;;;21.10;99.90;;;;;;2620235;49;19946;-80
2023/09/28 09:43:32;;;;;;;;;;;21.20;99.90;;;;;;2621161;54;20472;-80
2023/09/28 09:46:07;;;;;;;;;;;21.20;99.90;;;;;;2622678;54;19951;-76
2023/09/28 09:48:40;;;;;;;;;;;21.40;99.90;;;;;;2629846;54;19947;-80
2023/09/28 09:51:12;;;;;;;;;;;21.30;99.90;;;;;;2621779;54;19998;-80
2023/09/28 09:53:43;;;;;;;;;;;21.30;99.90;;;;;;2627955;54;19998;-80
2023/09/28 09:56:13;;;;;;;;;;;21.30;99.90;;;;;;2624863;54;19951;-80
2023/09/28 09:58:47;;;;;;;;;;;21.40;99.90;;;;;;2620395;54;19946;-80
2023/09/28 10:01:21;;;;;;;;;;;21.50;99.90;;;;;;2620442;54;19963;-78
2023/09/28 10:03:53;;;;;;;;;;;21.60;99.90;;;;;;2620598;46;19968;-80
2023/09/28 10:06:23;;;;;;;;;;;21.70;99.90;;;;;;2620554;54;19946;-77
2023/09/28 10:08:53;;;;;;;;;;;21.80;99.90;;;;;;2621879;47;19946;-78
2023/09/28 10:11:25;;;;;;;;;;;21.80;99.90;;;;;;2621639;47;19974;-78
2023/09/28 10:13:55;;;;;;;;;;;21.90;99.90;;;;;;2622396;47;19951;-77
2023/09/28 10:16:29;;;;;;;;;;;22.00;99.90;;;;;;2621393;47;19953;-79
2023/09/28 10:18:59;;;;;;;;;;;22.20;99.90;;;;;;2621266;47;19947;-78
2023/09/28 10:21:30;;;;;;;;;;;22.30;99.90;;;;;;2621024;46;19938;-79
2023/09/28 10:23:59;;;;;;;;;;;22.30;99.90;;;;;;2620451;54;19953;-79
2023/09/28 10:26:31;;;;;;;;;;;22.40;99.90;;;;;;2620542;54;19946;-79
2023/09/28 10:29:04;;;;;;;;;;;22.60;99.90;;;;;;2620847;47;19938;-78
2023/09/28 10:31:39;;;;;;;;;;;22.60;99.90;;;;;;2620557;54;19946;-79
2023/09/28 10:34:27;;;;;;;;;;;22.80;99.90;;;;;;2620700;47;20003;-78
2023/09/28 10:37:18;;;;;;;;;;;23.10;99.90;;;;;;2620072;54;19946;-78
2023/09/28 10:39:52;;;;;;;;;;;23.10;99.90;;;;;;2620113;54;19958;-80
2023/09/28 10:42:23;;;;;;;;;;;23.30;99.90;;;;;;2619758;54;19947;-79
2023/09/28 10:44:54;;;;;;;;;;;23.40;99.90;;;;;;2619130;51;19950;-80
2023/09/28 10:47:30;;;;;;;;;;;23.50;99.90;;;;;;2618586;50;19957;-78
2023/09/28 10:50:04;;;;;;;;;;;23.70;99.90;;;;;;2623622;54;19958;-79
2023/09/28 10:52:34;;;;;;;;;;;24.00;99.90;;;;;;2627955;47;19950;-77
2023/09/28 10:55:06;;;;;;;;;;;24.00;99.90;;;;;;2625307;54;19939;-76
2023/09/28 10:57:36;;;;;;;;;;;24.20;99.90;;;;;;2619471;47;19946;-78
2023/09/28 11:00:12;;;;;;;;;;;24.40;99.90;;;;;;2618494;47;19954;-79
2023/09/28 11:02:45;;;;;;;;;;;24.50;99.90;;;;;;2620325;46;19946;-74
2023/09/28 11:05:15;;;;;;;;;;;24.60;99.90;;;;;;2619456;39;20391;-76
2023/09/28 11:07:51;;;;;;;;;;;24.80;99.90;;;;;;2618274;47;20010;-78
2023/09/28 11:10:25;;;;;;;;;;;24.80;99.90;;;;;;2620731;54;19987;-78
2023/09/28 11:12:54;;;;;;;;;;;24.90;99.90;;;;;;2626903;47;19950;-77
2023/09/28 11:15:27;;;;;;;;;;;24.80;99.90;;;;;;2620544;47;19951;-78
2023/09/28 11:18:00;;;;;;;;;;;24.80;99.90;;;;;;2619422;54;19970;-78
2023/09/28 11:20:31;;;;;;;;;;;25.00;99.90;;;;;;2620735;47;19945;-79
2023/09/28 11:23:03;;;;;;;;;;;25.10;99.90;;;;;;2618503;54;19946;-77
2023/09/28 11:25:33;;;;;;;;;;;25.30;99.90;;;;;;2618580;54;19946;-78
2023/09/28 11:28:15;;;;;;;;;;;25.40;99.90;;;;;;2618777;47;20022;-79
2023/09/28 11:30:46;;;;;;;;;;;25.60;99.90;;;;;;2618856;54;20059;-79
2023/09/28 11:33:18;;;;;;;;;;;25.70;99.90;;;;;;2618605;47;19946;-78
2023/09/28 11:35:48;;;;;;;;;;;25.80;99.90;;;;;;2617758;54;19954;-76
2023/09/28 11:38:19;;;;;;;;;;;25.80;99.90;;;;;;2618378;54;19958;-79
2023/09/28 11:40:50;;;;;;;;;;;25.80;99.90;;;;;;2618202;54;19953;-78
2023/09/28 11:43:20;;;;;;;;;;;26.00;99.90;;;;;;2618583;39;20326;-78
2023/09/28 11:45:51;;;;;;;;;;;26.00;99.90;;;;;;2618556;54;20040;-79
2023/09/28 11:48:23;;;;;;;;;;;26.20;99.90;;;;;;2618792;47;19946;-80
2023/09/28 11:50:53;;;;;;;;;;;26.40;99.90;;;;;;2618659;46;19946;-76
2023/09/28 11:53:25;;;;;;;;;;;26.50;99.90;;;;;;2618722;54;20063;-78
2023/09/28 11:55:54;;;;;;;;;;;26.60;99.90;;;;;;2618508;47;19953;-76
2023/09/28 11:58:24;;;;;;;;;;;26.60;99.90;;;;;;2618191;47;19954;-77
2023/09/28 12:00:55;;;;;;;;;;;26.60;99.90;;;;;;2618714;54;19946;-76
2023/09/28 12:03:28;;;;;;;;;;;26.70;99.90;;;;;;2623536;47;19951;-77
2023/09/28 12:05:58;;;;;;;;;;;26.80;99.90;;;;;;2626459;47;19947;-77
2023/09/28 12:08:29;;;;;;;;;;;26.80;99.90;;;;;;2618709;54;20034;-77
2023/09/28 12:11:00;;;;;;;;;;;26.90;99.90;;;;;;2619728;47;19999;-77
2023/09/28 12:13:30;;;;;;;;;;;27.00;99.90;;;;;;2619106;47;19942;-77
2023/09/28 12:16:00;;;;;;;;;;;27.00;99.90;;;;;;2617959;47;19958;-76
2023/09/28 12:18:32;;;;;;;;;;;27.00;99.90;;;;;;2616797;47;19953;-78
2023/09/28 12:21:06;;;;;;;;;;;27.20;99.90;;;;;;2618504;39;20313;-77
2023/09/28 12:23:35;;;;;;;;;;;27.30;99.90;;;;;;2617856;54;19947;-76
2023/09/28 12:26:06;;;;;;;;;;;27.30;99.90;;;;;;2618038;54;19975;-77
2023/09/28 12:28:37;;;;;;;;;;;27.40;99.90;;;;;;2617959;47;20037;-77
2023/09/28 12:31:08;;;;;;;;;;;27.50;99.90;;;;;;2617267;54;19980;-75
2023/09/28 12:33:41;;;;;;;;;;;27.70;99.90;;;;;;2618913;54;19947;-77
2023/09/28 12:36:15;;;;;;;;;;;27.80;99.90;;;;;;2619144;54;19946;-76
2023/09/28 12:38:47;;;;;;;;;;;27.80;99.90;;;;;;2619490;54;19947;-77
2023/09/28 12:41:17;;;;;;;;;;;27.90;99.90;;;;;;2619756;47;19947;-76
2023/09/28 12:43:48;;;;;;;;;;;27.90;99.90;;;;;;2618943;54;19950;-76
2023/09/28 12:46:18;;;;;;;;;;;27.90;99.90;;;;;;2619441;47;19982;-76
2023/09/28 12:48:52;;;;;;;;;;;28.00;99.90;;;;;;2622614;54;19945;-82
2023/09/28 12:51:22;;;;;;;;;;;28.00;99.90;;;;;;2625348;54;19938;-77
2023/09/28 12:53:52;;;;;;;;;;;28.10;99.90;;;;;;2619444;47;19939;-78
2023/09/28 12:56:23;;;;;;;;;;;28.20;99.90;;;;;;2619240;47;19945;-77
2023/09/28 12:58:53;;;;;;;;;;;28.20;99.90;;;;;;2619411;47;19946;-77
2023/09/28 13:01:24;;;;;;;;;;;28.30;99.90;;;;;;2618790;54;20013;-76
2023/09/28 13:03:59;;;;;;;;;;;28.30;99.90;;;;;;2619167;54;19954;-76
2023/09/28 13:06:30;;;;;;;;;;;28.30;99.90;;;;;;2619896;47;19946;-77
2023/09/28 13:09:06;;;;;;;;;;;28.40;99.90;;;;;;2619944;54;20475;-77
2023/09/28 13:11:36;;;;;;;;;;;28.40;99.90;;;;;;2619937;54;20064;-78
2023/09/28 13:14:06;;;;;;;;;;;28.40;99.90;;;;;;2619643;52;19938;-77
2023/09/28 13:16:36;;;;;;;;;;;28.30;99.90;;;;;;2619052;51;19945;-78
2023/09/28 13:19:11;;;;;;;;;;;28.30;99.90;;;;;;2620375;47;19946;-77
2023/09/28 13:21:41;;;;;;;;;;;28.30;99.90;;;;;;2619427;54;19959;-77
2023/09/28 13:24:14;;;;;;;;;;;28.30;99.90;;;;;;2619536;54;19951;-76
2023/09/28 13:26:49;;;;;;;;;;;28.30;99.90;;;;;;2620777;46;19951;-79
2023/09/28 13:29:21;;;;;;;;;;;28.20;99.90;;;;;;2615781;47;19946;-63
2023/09/28 13:31:51;;;;;;;;;;;27.70;99.90;;;;;;2621257;54;19992;-66
2023/09/28 13:34:23;;;;;;;;;;;28.10;99.90;;;;;;2617896;54;19946;-63
2023/09/28 13:36:53;;;;;;;;;;;28.10;99.90;;;;;;2617825;54;19939;-64
2023/09/28 13:39:30;;;;;;;;;;;28.00;99.90;;;;;;2617192;39;20041;-63
2023/09/28 13:42:03;;;;;;;;;;;28.00;99.90;;;;;;2617272;54;20440;-63
2023/09/28 13:44:33;;;;;;;;;;;28.00;99.90;;;;;;2617083;54;19947;-63
2023/09/28 13:47:06;;;;;;;;;;;27.90;99.90;;;;;;2617242;47;19958;-63
2023/09/28 13:49:39;;;;;;;;;;;27.80;99.90;;;;;;2616385;54;20485;-62
2023/09/28 13:52:10;;;;;;;;;;;27.80;99.90;;;;;;2616768;54;19953;-63
2023/09/28 13:54:40;;;;;;;;;;;27.80;99.90;;;;;;2617409;54;19943;-66
2023/09/28 13:57:10;;;;;;;;;;;28.00;99.90;;;;;;2617034;47;20444;-62
2023/09/28 13:59:40;;;;;;;;;;;27.80;99.90;;;;;;2616582;47;20018;-63
2023/09/28 14:02:12;;;;;;;;;;;27.70;99.90;;;;;;2616936;54;20017;-62
2023/09/28 14:04:44;;;;;;;;;;;27.70;99.90;;;;;;2616568;47;19947;-64
2023/09/28 14:07:14;;;;;;;;;;;27.60;99.90;;;;;;2616771;47;19946;-63
2023/09/28 14:09:45;;;;;;;;;;;27.60;99.90;;;;;;2616847;54;19954;-65
2023/09/28 14:12:15;;;;;;;;;;;27.60;99.90;;;;;;2617453;47;19947;-66
2023/09/28 14:14:44;;;;;;;;;;;27.60;99.90;;;;;;2617416;47;19951;-63
2023/09/28 14:17:14;;;;;;;;;;;27.50;99.90;;;;;;2617435;54;19969;-63
2023/09/28 14:20:08;;;;;;;;;;;27.60;99.90;;;;;;2617435;46;19946;-64
2023/09/28 14:22:38;;;;;;;;;;;27.60;99.90;;;;;;2617160;54;19950;-63
2023/09/28 14:25:09;;;;;;;;;;;27.60;99.90;;;;;;2617422;54;19946;-64
2023/09/28 14:27:38;;;;;;;;;;;27.80;99.90;;;;;;2617603;47;19945;-63
2023/09/28 14:30:09;;;;;;;;;;;28.50;99.90;;;;;;2617429;54;19947;-63
2023/09/28 14:32:39;;;;;;;;;;;29.60;99.90;;;;;;2619711;54;19947;-63
2023/09/28 14:35:12;;;;;;;;;;;31.10;99.90;;;;;;2621467;54;19938;-63
2023/09/28 14:37:42;;;;;;;;;;;32.40;99.90;;;;;;2621466;54;20463;-64
2023/09/28 14:40:12;;;;;;;;;;;32.90;99.90;;;;;;2618120;54;19945;-63
2023/09/28 14:42:46;;;;;;;;;;;33.00;99.90;;;;;;2618178;54;20038;-63
2023/09/28 14:45:16;;;;;;;;;;;33.00;99.90;;;;;;2617491;47;19939;-61
2023/09/28 14:47:46;;;;;;;;;;;33.40;99.90;;;;;;2618184;39;20403;-63
2023/09/28 14:50:18;;;;;;;;;;;34.30;99.90;;;;;;2615547;47;20409;-63
2023/09/28 14:52:48;;;;;;;;;;;35.20;99.90;;;;;;2617466;54;19939;-64
2023/09/28 14:55:18;;;;;;;;;;;35.50;99.90;;;;;;2617326;54;19946;-64
2023/09/28 14:57:48;;;;;;;;;;;35.60;99.90;;;;;;2617098;54;19953;-63
2023/09/28 15:00:19;;;;;;;;;;;36.40;99.90;;;;;;2617250;39;20373;-64
2023/09/28 15:02:49;;;;;;;;;;;37.20;99.90;;;;;;2608984;46;19946;-64
2023/09/28 15:05:21;;;;;;;;;;;37.70;99.90;;;;;;2604616;39;20415;-64
2023/09/28 15:07:51;;;;;;;;;;;38.10;99.90;;;;;;2605863;54;19946;-65
2023/09/28 15:10:20;;;;;;;;;;;38.30;99.90;;;;;;2603861;54;20525;-64
2023/09/28 15:12:50;;;;;;;;;;;38.10;99.90;;;;;;2605432;54;19946;-64
2023/09/28 15:15:21;;;;;;;;;;;38.00;99.90;;;;;;2606260;46;20478;-66
2023/09/28 15:17:50;;;;;;;;;;;37.70;99.90;;;;;;2606184;47;19951;-64
2023/09/28 15:20:23;;;;;;;;;;;37.50;99.90;;;;;;2606325;47;19947;-63
2023/09/28 15:22:54;;;;;;;;;;;37.40;99.90;;;;;;2605905;54;19946;-65
2023/09/28 15:25:24;;;;;;;;;;;37.50;99.90;;;;;;2606167;54;19981;-65
2023/09/28 15:27:53;;;;;;;;;;;38.00;99.90;;;;;;2605694;54;19946;-63
2023/09/28 15:30:23;;;;;;;;;;;38.40;99.90;;;;;;2605273;47;20417;-65
2023/09/28 15:32:53;;;;;;;;;;;38.60;99.90;;;;;;2604734;54;19947;-65
2023/09/28 15:35:26;;;;;;;;;;;38.20;99.90;;;;;;2603772;54;19947;-63
2023/09/28 15:37:56;;;;;;;;;;;37.60;99.90;;;;;;2604623;54;19953;-65
2023/09/28 15:40:27;;;;;;;;;;;36.90;99.90;;;;;;2614134;54;19965;-67
2023/09/28 15:42:57;;;;;;;;;;;36.00;99.90;;;;;;2615782;54;20554;-65
2023/09/28 15:45:26;;;;;;;;;;;35.00;99.90;;;;;;2616774;54;19951;-67
2023/09/28 15:47:56;;;;;;;;;;;34.00;99.90;;;;;;2616178;54;19938;-67
2023/09/28 15:50:28;;;;;;;;;;;33.20;99.90;;;;;;2616062;54;19939;-64
2023/09/28 15:52:58;;;;;;;;;;;32.30;99.90;;;;;;2616181;54;19938;-66
2023/09/28 15:55:28;;;;;;;;;;;31.70;99.90;;;;;;2616296;54;19954;-65
2023/09/28 15:57:58;;;;;;;;;;;31.10;99.90;;;;;;2615184;54;19947;-65
2023/09/28 16:00:27;;;;;;;;;;;30.60;99.90;;;;;;2615200;54;19939;-66
2023/09/28 16:03:06;;;;;;;;;;;30.20;99.90;;;;;;2616804;47;19946;-64
2023/09/28 16:05:39;;;;;;;;;;;29.70;99.90;;;;;;2615041;54;19954;-64
2023/09/28 16:08:09;;;;;;;;;;;29.30;99.90;;;;;;2617655;39;20348;-65
2023/09/28 16:10:40;;;;;;;;;;;29.00;99.90;;;;;;2616453;54;19946;-65
2023/09/28 16:13:10;;;;;;;;;;;28.70;99.90;;;;;;2617909;47;19981;-64
2023/09/28 16:15:40;;;;;;;;;;;28.40;99.90;;;;;;2618250;54;19943;-66
2023/09/28 16:18:10;;;;;;;;;;;28.10;99.90;;;;;;2619925;39;20332;-67
2023/09/28 16:20:43;;;;;;;;;;;27.90;99.90;;;;;;2616754;47;19998;-67
2023/09/28 16:23:13;;;;;;;;;;;27.70;99.90;;;;;;2618632;54;19959;-67
2023/09/28 16:25:43;;;;;;;;;;;27.40;99.90;;;;;;2620169;47;19946;-67
2023/09/28 16:28:13;;;;;;;;;;;27.20;99.90;;;;;;2620186;54;19939;-65
2023/09/28 16:30:42;;;;;;;;;;;27.10;99.90;;;;;;2618104;47;20475;-65
2023/09/28 16:33:12;;;;;;;;;;;26.90;99.90;;;;;;2617561;54;19953;-66
2023/09/28 16:35:45;;;;;;;;;;;26.70;99.90;;;;;;2618021;39;20364;-65
2023/09/28 16:38:15;;;;;;;;;;;26.50;99.90;;;;;;2627469;36;19954;-67
2023/09/28 16:40:45;;;;;;;;;;;26.40;99.90;;;;;;2618487;54;19946;-65
2023/09/28 16:43:15;;;;;;;;;;;26.30;99.90;;;;;;2618983;50;19947;-67
2023/09/28 16:45:45;;;;;;;;;;;26.10;99.90;;;;;;2618290;54;19947;-67
2023/09/28 16:48:15;;;;;;;;;;;26.00;99.90;;;;;;2617804;54;19946;-66
2023/09/28 16:50:48;;;;;;;;;;;25.90;99.90;;;;;;2618636;54;19947;-66
2023/09/28 16:53:17;;;;;;;;;;;25.70;99.90;;;;;;2619133;47;19947;-65
2023/09/28 16:55:47;;;;;;;;;;;25.60;99.90;;;;;;2618475;54;19955;-68
2023/09/28 16:58:18;;;;;;;;;;;25.40;99.90;;;;;;2618229;54;19945;-69
2023/09/28 17:00:48;;;;;;;;;;;25.30;99.90;;;;;;2617067;54;19946;-67
2023/09/28 17:03:18;;;;;;;;;;;25.10;99.90;;;;;;2616284;39;20346;-65
2023/09/28 17:05:50;;;;;;;;;;;24.90;99.90;;;;;;2617810;54;19945;-68
2023/09/28 17:08:20;;;;;;;;;;;24.80;99.90;;;;;;2617249;31;20445;-66
2023/09/28 17:10:51;;;;;;;;;;;24.60;99.90;;;;;;2616558;54;20026;-67
2023/09/28 17:13:23;;;;;;;;;;;24.50;99.90;;;;;;2616287;47;19995;-66
2023/09/28 17:15:53;;;;;;;;;;;24.50;99.90;;;;;;2616664;54;20705;-67
2023/09/28 17:18:22;;;;;;;;;;;24.30;99.90;;;;;;2616437;54;19946;-68
2023/09/28 17:20:55;;;;;;;;;;;24.20;99.90;;;;;;2616689;54;19950;-67
2023/09/28 17:23:24;;;;;;;;;;;24.00;99.90;;;;;;2617319;47;19939;-66
2023/09/28 17:25:55;;;;;;;;;;;23.90;99.90;;;;;;2615853;54;19982;-68
2023/09/28 17:28:24;;;;;;;;;;;23.80;99.90;;;;;;2615959;54;19957;-63
2023/09/28 17:30:54;;;;;;;;;;;23.70;99.90;;;;;;2614582;54;19954;-64
2023/09/28 17:33:24;;;;;;;;;;;23.60;99.90;;;;;;2615625;47;19945;-63
2023/09/28 17:35:57;;;;;;;;;;;23.50;99.90;;;;;;2616732;54;19976;-64
2023/09/28 17:38:26;;;;;;;;;;;23.50;99.90;;;;;;2617235;39;20349;-65
2023/09/28 17:40:57;;;;;;;;;;;23.30;99.90;;;;;;2614561;54;19963;-64
2023/09/28 17:43:26;;;;;;;;;;;23.40;99.90;;;;;;2617955;54;19946;-64
2023/09/28 17:45:57;;;;;;;;;;;23.20;99.90;;;;;;2619058;54;19939;-64
2023/09/28 17:48:26;;;;;;;;;;;23.00;99.90;;;;;;2619064;54;19939;-63
2023/09/28 17:50:59;;;;;;;;;;;23.00;99.90;;;;;;2618556;54;19995;-65
2023/09/28 17:53:29;;;;;;;;;;;22.90;99.90;;;;;;2618697;39;20322;-65
2023/09/28 17:55:59;;;;;;;;;;;22.80;99.90;;;;;;2617557;54;19946;-64
2023/09/28 17:58:29;;;;;;;;;;;22.70;99.90;;;;;;2616178;54;19947;-63
2023/09/28 18:00:58;;;;;;;;;;;22.60;99.90;;;;;;2617136;47;19947;-64
2023/09/28 18:03:28;;;;;;;;;;;22.50;99.90;;;;;;2614586;54;20596;-64
2023/09/28 18:06:00;;;;;;;;;;;22.40;99.90;;;;;;2616026;47;19947;-63
2023/09/28 18:08:31;;;;;;;;;;;22.30;99.90;;;;;;2615670;39;20376;-65
2023/09/28 18:11:06;;;;;;;;;;;22.20;99.90;;;;;;2617718;31;20485;-65
2023/09/28 18:13:36;;;;;;;;;;;22.20;99.90;;;;;;2617672;54;19970;-64
2023/09/28 18:16:06;;;;;;;;;;;22.10;99.90;;;;;;2616245;54;19947;-65
2023/09/28 18:18:35;;;;;;;;;;;22.00;99.90;;;;;;2615955;54;19954;-64
2023/09/28 18:21:08;;;;;;;;;;;21.90;99.90;;;;;;2617388;54;19955;-64
2023/09/28 18:23:37;;;;;;;;;;;21.90;99.90;;;;;;2616803;47;19948;-63
2023/09/28 18:26:07;;;;;;;;;;;21.80;99.90;;;;;;2616646;54;19986;-64
2023/09/28 18:28:38;;;;;;;;;;;21.70;99.90;;;;;;2615267;54;20064;-65
2023/09/28 18:31:08;;;;;;;;;;;21.60;99.90;;;;;;2615541;54;19950;-65
2023/09/28 18:33:39;;;;;;;;;;;21.60;99.90;;;;;;2616610;54;20055;-65
2023/09/28 18:36:11;;;;;;;;;;;21.50;99.90;;;;;;2616529;54;19973;-64
2023/09/28 18:38:41;;;;;;;;;;;21.50;99.90;;;;;;2616887;47;19947;-65
2023/09/28 18:41:16;;;;;;;;;;;21.40;99.90;;;;;;2616665;47;19957;-64
2023/09/28 18:43:47;;;;;;;;;;;21.30;99.90;;;;;;2617493;54;20579;-66
2023/09/28 18:46:17;;;;;;;;;;;21.30;99.90;;;;;;2617399;54;19939;-64
2023/09/28 18:48:49;;;;;;;;;;;21.30;99.90;;;;;;2616637;47;19954;-63
2023/09/28 18:51:22;;;;;;;;;;;21.20;99.90;;;;;;2616460;47;19961;-64
2023/09/28 18:53:52;;;;;;;;;;;21.10;99.90;;;;;;2617214;47;20433;-63
2023/09/28 18:56:22;;;;;;;;;;;21.10;99.90;;;;;;2616910;54;20453;-64
2023/09/28 18:58:52;;;;;;;;;;;21.00;99.90;;;;;;2617816;31;20457;-63
2023/09/28 19:01:22;;;;;;;;;;;21.00;99.90;;;;;;2616705;46;19958;-64
2023/09/28 19:03:51;;;;;;;;;;;20.90;99.90;;;;;;2616268;47;20055;-64
2023/09/28 19:06:24;;;;;;;;;;;20.80;99.90;;;;;;2617016;47;19946;-63
2023/09/28 19:08:54;;;;;;;;;;;20.80;99.90;;;;;;2616540;54;19947;-62
2023/09/28 19:11:23;;;;;;;;;;;20.70;99.90;;;;;;2616529;47;20226;-64
2023/09/28 19:13:53;;;;;;;;;;;20.70;99.90;;;;;;2616758;54;19950;-63
2023/09/28 19:16:23;;;;;;;;;;;20.70;99.90;;;;;;2616343;54;20026;-65
2023/09/28 19:18:53;;;;;;;;;;;20.70;99.90;;;;;;2616635;54;19947;-67
2023/09/28 19:21:26;;;;;;;;;;;20.60;99.90;;;;;;2617173;54;19972;-67
2023/09/28 19:23:57;;;;;;;;;;;20.60;99.90;;;;;;2617635;47;19947;-67
2023/09/28 19:26:30;;;;;;;;;;;20.50;99.90;;;;;;2617330;54;19953;-66
2023/09/28 19:29:00;;;;;;;;;;;20.70;99.90;;;;;;2617049;47;19946;-66
2023/09/28 19:31:31;;;;;;;;;;;22.00;99.90;;;;;;2617228;54;19953;-67
2023/09/28 19:34:03;;;;;;;;;;;20.50;99.90;;;;;;2616325;47;19947;-67
2023/09/28 19:36:35;;;;;;;;;;;20.40;99.90;;;;;;2617052;54;20083;-67
2023/09/28 19:39:05;;;;;;;;;;;20.40;99.90;;;;;;2615907;47;20030;-66
2023/09/28 19:41:37;;;;;;;;;;;20.40;99.90;;;;;;2616868;54;19989;-68
2023/09/28 19:44:07;;;;;;;;;;;20.30;99.90;;;;;;2615939;54;19970;-67
